createdAt,value
2017-04-07T00:00:19.221Z,1014.07
2017-04-07T00:01:28.457Z,1014.18
2017-04-07T00:02:37.442Z,1014.16
2017-04-07T00:03:46.415Z,1014.22
2017-04-07T00:04:55.390Z,1014.18
2017-04-07T00:06:04.363Z,1014.16
2017-04-07T00:07:13.589Z,1014.14
2017-04-07T00:08:22.563Z,1014.11
2017-04-07T00:09:31.537Z,1014.11
2017-04-07T00:10:40.516Z,1014.04
2017-04-07T00:11:49.491Z,1014.07
2017-04-07T00:12:58.720Z,1014.09
2017-04-07T00:14:07.704Z,1014.13
2017-04-07T00:15:16.688Z,1014.1
2017-04-07T00:16:25.664Z,1014.06
2017-04-07T00:17:34.722Z,1014.09
2017-04-07T00:18:44.000Z,1014.09
2017-04-07T00:19:52.983Z,1014.02
2017-04-07T00:21:01.993Z,1013.97
2017-04-07T00:22:10.966Z,1013.99
2017-04-07T00:23:19.973Z,1013.97
2017-04-07T00:24:29.203Z,1013.95
2017-04-07T00:25:38.178Z,1013.98
2017-04-07T00:26:47.161Z,1013.93
2017-04-07T00:27:56.136Z,1013.85
2017-04-07T00:29:05.111Z,1013.89
2017-04-07T00:30:14.340Z,1013.87
2017-04-07T00:31:23.331Z,1013.9
2017-04-07T00:32:32.308Z,1013.88
2017-04-07T00:33:41.281Z,1013.86
2017-04-07T00:34:50.265Z,1013.84
2017-04-07T00:35:59.497Z,1013.83
2017-04-07T00:37:08.552Z,1013.82
2017-04-07T00:38:17.523Z,1013.8
2017-04-07T00:39:26.505Z,1013.74
2017-04-07T00:40:35.482Z,1013.76
2017-04-07T00:41:44.711Z,1013.71
2017-04-07T00:42:53.683Z,1013.65
2017-04-07T00:44:02.652Z,1013.69
2017-04-07T00:45:11.621Z,1013.65
2017-04-07T00:46:20.599Z,1013.61
2017-04-07T00:47:29.869Z,1013.61
2017-04-07T00:48:38.825Z,1013.59
2017-04-07T00:49:47.800Z,1013.61
2017-04-07T00:50:56.897Z,1013.62
2017-04-07T00:52:05.845Z,1013.62
2017-04-07T00:53:15.228Z,1013.63
2017-04-07T00:54:24.173Z,1013.59
2017-04-07T00:55:33.235Z,1013.54
2017-04-07T00:56:42.287Z,1013.56
2017-04-07T00:57:51.355Z,1013.53
2017-04-07T00:59:00.700Z,1013.47
2017-04-07T01:00:09.653Z,1013.5
2017-04-07T01:01:18.604Z,1013.52
2017-04-07T01:02:27.648Z,1013.49
2017-04-07T01:03:37.227Z,1013.45
2017-04-07T01:04:46.699Z,1013.41
2017-04-07T01:05:58.801Z,1013.43
2017-04-07T01:07:09.258Z,1013.39
2017-04-07T01:08:18.638Z,1013.39
2017-04-07T01:09:27.811Z,1013.37
2017-04-07T01:10:37.020Z,1013.35
2017-04-07T01:11:46.225Z,1013.32
2017-04-07T01:12:55.900Z,1013.3
2017-04-07T01:14:05.152Z,1013.26
2017-04-07T01:15:14.103Z,1013.26
2017-04-07T01:16:23.330Z,1013.24
2017-04-07T01:17:32.284Z,1013.27
2017-04-07T01:18:41.238Z,1013.14
2017-04-07T01:19:50.427Z,1013.13
2017-04-07T01:21:00.659Z,1013.16
2017-04-07T01:22:09.856Z,1013.17
2017-04-07T01:23:18.806Z,1013.16
2017-04-07T01:24:28.195Z,1013.16
2017-04-07T01:25:38.158Z,1013.13
2017-04-07T01:26:47.355Z,1013.1
2017-04-07T01:27:56.967Z,1013.12
2017-04-07T01:29:08.189Z,1013.02
2017-04-07T01:30:18.347Z,1013.07
2017-04-07T01:31:29.051Z,1013.04
2017-04-07T01:32:38.005Z,1013
2017-04-07T01:33:47.258Z,1012.91
2017-04-07T01:34:56.276Z,1012.92
2017-04-07T01:36:06.245Z,1012.93
2017-04-07T01:37:15.192Z,1012.87
2017-04-07T01:38:24.317Z,1012.89
2017-04-07T01:39:33.527Z,1012.85
2017-04-07T01:40:42.479Z,1012.79
2017-04-07T01:41:51.429Z,1012.81
2017-04-07T01:43:00.467Z,1012.72
2017-04-07T01:44:09.424Z,1012.78
2017-04-07T01:45:18.994Z,1012.77
2017-04-07T01:46:28.051Z,1012.67
2017-04-07T01:47:37.095Z,1012.67
2017-04-07T01:48:46.616Z,1012.69
2017-04-07T01:49:55.573Z,1012.78
2017-04-07T01:51:04.863Z,1012.79
2017-04-07T01:52:14.132Z,1012.72
2017-04-07T01:53:23.084Z,1012.73
2017-04-07T01:54:32.516Z,1012.8
2017-04-07T01:55:41.844Z,1012.71
2017-04-07T01:56:51.063Z,1012.75
2017-04-07T01:58:00.013Z,1012.86
2017-04-07T01:59:09.057Z,1012.69
2017-04-07T02:00:18.011Z,1012.74
2017-04-07T02:01:26.966Z,1012.72
2017-04-07T02:02:36.263Z,1012.73
2017-04-07T02:03:45.594Z,1012.72
2017-04-07T02:04:55.070Z,1012.74
2017-04-07T02:06:04.290Z,1012.84
2017-04-07T02:07:13.303Z,1012.64
2017-04-07T02:08:22.540Z,1012.74
2017-04-07T02:09:31.494Z,1012.66
2017-04-07T02:10:41.232Z,1012.68
2017-04-07T02:11:50.757Z,1012.69
2017-04-07T02:12:59.794Z,1012.73
2017-04-07T02:14:08.998Z,1012.68
2017-04-07T02:15:17.973Z,1012.63
2017-04-07T02:16:26.925Z,1012.68
2017-04-07T02:17:35.969Z,1012.65
2017-04-07T02:18:44.927Z,1012.67
2017-04-07T02:19:54.199Z,1012.66
2017-04-07T02:21:03.145Z,1012.56
2017-04-07T02:22:12.105Z,1012.51
2017-04-07T02:23:21.062Z,1012.57
2017-04-07T02:24:30.013Z,1012.54
2017-04-07T02:25:39.304Z,1012.48
2017-04-07T02:26:48.256Z,1012.46
2017-04-07T02:27:57.206Z,1012.52
2017-04-07T02:29:06.166Z,1012.44
2017-04-07T02:30:15.122Z,1012.48
2017-04-07T02:31:24.375Z,1012.45
2017-04-07T02:32:33.327Z,1012.47
2017-04-07T02:33:42.280Z,1012.55
2017-04-07T02:34:51.233Z,1012.57
2017-04-07T02:36:00.278Z,1012.59
2017-04-07T02:37:09.488Z,1012.62
2017-04-07T02:38:18.438Z,1012.64
2017-04-07T02:39:27.387Z,1012.59
2017-04-07T02:40:36.426Z,1012.61
2017-04-07T02:41:45.384Z,1012.55
2017-04-07T02:42:54.642Z,1012.55
2017-04-07T02:44:03.618Z,1012.49
2017-04-07T02:45:12.574Z,1012.54
2017-04-07T02:46:21.528Z,1012.48
2017-04-07T02:47:30.478Z,1012.39
2017-04-07T02:48:39.689Z,1012.53
2017-04-07T02:49:48.821Z,1012.46
2017-04-07T02:50:57.773Z,1012.46
2017-04-07T02:52:06.738Z,1012.53
2017-04-07T02:53:15.783Z,1012.42
2017-04-07T02:54:25.032Z,1012.53
2017-04-07T02:55:33.985Z,1012.46
2017-04-07T02:56:42.946Z,1012.47
2017-04-07T02:57:51.898Z,1012.4
2017-04-07T02:59:00.845Z,1012.42
2017-04-07T03:00:10.382Z,1012.4
2017-04-07T03:01:19.336Z,1012.46
2017-04-07T03:02:28.286Z,1012.43
2017-04-07T03:03:37.239Z,1012.44
2017-04-07T03:04:46.270Z,1012.49
2017-04-07T03:05:55.559Z,1012.4
2017-04-07T03:07:04.509Z,1012.4
2017-04-07T03:08:13.462Z,1012.41
2017-04-07T03:09:22.416Z,1012.38
2017-04-07T03:10:31.373Z,1012.4
2017-04-07T03:11:40.602Z,1012.29
2017-04-07T03:12:49.556Z,1012.41
2017-04-07T03:13:58.506Z,1012.36
2017-04-07T03:15:07.549Z,1012.24
2017-04-07T03:16:16.589Z,1012.31
2017-04-07T03:17:26.116Z,1012.26
2017-04-07T03:18:35.067Z,1012.23
2017-04-07T03:19:44.021Z,1012.25
2017-04-07T03:20:52.969Z,1012.16
2017-04-07T03:22:01.921Z,1012.18
2017-04-07T03:23:11.174Z,1012.12
2017-04-07T03:24:20.143Z,1012.07
2017-04-07T03:25:29.182Z,1012.13
2017-04-07T03:26:38.477Z,1012.13
2017-04-07T03:27:47.435Z,1012.16
2017-04-07T03:28:56.646Z,1012.12
2017-04-07T03:30:05.600Z,1012.11
2017-04-07T03:31:14.555Z,1012.15
2017-04-07T03:32:23.509Z,1012.17
2017-04-07T03:33:32.466Z,1012.11
2017-04-07T03:34:41.757Z,1011.96
2017-04-07T03:35:50.715Z,1012.12
2017-04-07T03:36:59.666Z,1012.05
2017-04-07T03:38:08.626Z,1012.04
2017-04-07T03:39:17.665Z,1011.93
2017-04-07T03:40:26.882Z,1012
2017-04-07T03:41:35.838Z,1012.04
2017-04-07T03:42:44.820Z,1012.01
2017-04-07T03:43:53.767Z,1012
2017-04-07T03:45:02.730Z,1011.94
2017-04-07T03:46:11.929Z,1011.92
2017-04-07T03:47:20.879Z,1011.87
2017-04-07T03:48:33.107Z,1011.71
2017-04-07T03:49:42.074Z,1011.65
2017-04-07T03:50:51.028Z,1011.76
2017-04-07T03:52:00.332Z,1011.75
2017-04-07T03:53:09.298Z,1011.83
2017-04-07T03:54:18.253Z,1011.89
2017-04-07T03:55:27.291Z,1011.86
2017-04-07T03:56:36.358Z,1011.78
2017-04-07T03:57:45.613Z,1011.75
2017-04-07T03:58:54.561Z,1011.74
2017-04-07T04:00:03.508Z,1011.82
2017-04-07T04:01:12.553Z,1011.83
2017-04-07T04:02:21.509Z,1011.85
2017-04-07T04:03:30.766Z,1011.83
2017-04-07T04:04:39.717Z,1011.74
2017-04-07T04:05:48.668Z,1011.78
2017-04-07T04:06:57.621Z,1011.76
2017-04-07T04:08:06.572Z,1011.81
2017-04-07T04:09:15.828Z,1011.78
2017-04-07T04:10:24.809Z,1011.86
2017-04-07T04:11:33.852Z,1011.8
2017-04-07T04:12:42.806Z,1011.82
2017-04-07T04:13:51.844Z,1011.76
2017-04-07T04:15:01.186Z,1011.79
2017-04-07T04:16:10.150Z,1011.78
2017-04-07T04:17:19.191Z,1011.74
2017-04-07T04:18:28.234Z,1011.73
2017-04-07T04:19:37.186Z,1011.72
2017-04-07T04:20:46.443Z,1011.67
2017-04-07T04:21:55.397Z,1011.67
2017-04-07T04:23:04.349Z,1011.68
2017-04-07T04:24:13.385Z,1011.75
2017-04-07T04:25:22.420Z,1011.78
2017-04-07T04:26:31.763Z,1011.75
2017-04-07T04:27:40.714Z,1011.7
2017-04-07T04:28:49.676Z,1011.7
2017-04-07T04:29:58.626Z,1011.7
2017-04-07T04:31:07.670Z,1011.75
2017-04-07T04:32:16.919Z,1011.72
2017-04-07T04:33:25.870Z,1011.77
2017-04-07T04:34:34.830Z,1011.75
2017-04-07T04:35:43.784Z,1011.69
2017-04-07T04:36:52.738Z,1011.67
2017-04-07T04:38:01.995Z,1011.68
2017-04-07T04:39:11.034Z,1011.73
2017-04-07T04:40:19.988Z,1011.73
2017-04-07T04:41:28.948Z,1011.8
2017-04-07T04:42:38.234Z,1011.79
2017-04-07T04:43:47.495Z,1011.77
2017-04-07T04:44:56.441Z,1011.82
2017-04-07T04:46:05.391Z,1011.75
2017-04-07T04:47:14.341Z,1011.78
2017-04-07T04:48:23.296Z,1011.76
2017-04-07T04:49:32.550Z,1011.75
2017-04-07T04:50:41.585Z,1011.74
2017-04-07T04:51:50.540Z,1011.75
2017-04-07T04:52:59.502Z,1011.8
2017-04-07T04:54:08.457Z,1011.88
2017-04-07T04:55:17.716Z,1011.74
2017-04-07T04:56:26.667Z,1011.78
2017-04-07T04:57:35.708Z,1011.65
2017-04-07T04:58:44.661Z,1011.72
2017-04-07T04:59:53.701Z,1011.64
2017-04-07T05:01:02.953Z,1011.66
2017-04-07T05:02:11.907Z,1011.54
2017-04-07T05:03:20.860Z,1011.55
2017-04-07T05:04:29.810Z,1011.6
2017-04-07T05:05:38.762Z,1011.57
2017-04-07T05:06:47.963Z,1011.56
2017-04-07T05:07:56.917Z,1011.61
2017-04-07T05:09:06.047Z,1011.56
2017-04-07T05:10:15.117Z,1011.6
2017-04-07T05:11:24.078Z,1011.56
2017-04-07T05:12:33.312Z,1011.51
2017-04-07T05:13:42.264Z,1011.53
2017-04-07T05:14:51.214Z,1011.63
2017-04-07T05:16:00.166Z,1011.62
2017-04-07T05:17:09.202Z,1011.62
2017-04-07T05:18:18.491Z,1011.58
2017-04-07T05:19:27.438Z,1011.53
2017-04-07T05:20:36.388Z,1011.54
2017-04-07T05:21:45.343Z,1011.5
2017-04-07T05:22:54.302Z,1011.61
2017-04-07T05:24:03.591Z,1011.57
2017-04-07T05:25:12.547Z,1011.62
2017-04-07T05:26:21.496Z,1011.63
2017-04-07T05:27:30.443Z,1011.64
2017-04-07T05:28:39.398Z,1011.76
2017-04-07T05:29:48.647Z,1011.67
2017-04-07T05:30:57.598Z,1011.61
2017-04-07T05:32:06.550Z,1011.74
2017-04-07T05:33:15.509Z,1011.72
2017-04-07T05:34:24.460Z,1011.73
2017-04-07T05:35:33.707Z,1011.77
2017-04-07T05:36:43.072Z,1011.77
2017-04-07T05:37:52.019Z,1011.78
2017-04-07T05:39:00.971Z,1011.75
2017-04-07T05:40:09.926Z,1011.78
2017-04-07T05:41:19.179Z,1011.74
2017-04-07T05:42:28.132Z,1011.74
2017-04-07T05:43:37.170Z,1011.78
2017-04-07T05:44:46.125Z,1011.72
2017-04-07T05:45:55.077Z,1011.79
2017-04-07T05:47:04.278Z,1011.75
2017-04-07T05:48:13.233Z,1011.85
2017-04-07T05:49:22.273Z,1011.8
2017-04-07T05:50:31.222Z,1011.77
2017-04-07T05:51:40.175Z,1011.85
2017-04-07T05:52:49.377Z,1011.79
2017-04-07T05:53:58.333Z,1011.77
2017-04-07T05:55:07.309Z,1011.84
2017-04-07T05:56:16.345Z,1011.87
2017-04-07T05:57:25.386Z,1011.82
2017-04-07T05:58:34.589Z,1011.88
2017-04-07T05:59:43.540Z,1011.82
2017-04-07T06:00:53.155Z,1011.86
2017-04-07T06:02:02.116Z,1011.92
2017-04-07T06:03:11.067Z,1011.89
2017-04-07T06:04:20.322Z,1011.94
2017-04-07T06:05:29.275Z,1011.84
2017-04-07T06:06:38.235Z,1011.92
2017-04-07T06:07:47.284Z,1011.91
2017-04-07T06:08:56.408Z,1011.94
2017-04-07T06:10:05.976Z,1011.84
2017-04-07T06:11:14.943Z,1011.8
2017-04-07T06:12:23.901Z,1011.78
2017-04-07T06:13:32.858Z,1011.81
2017-04-07T06:14:41.993Z,1011.86
2017-04-07T06:15:51.386Z,1011.84
2017-04-07T06:17:00.707Z,1011.77
2017-04-07T06:18:09.667Z,1011.79
2017-04-07T06:19:18.663Z,1011.77
2017-04-07T06:20:27.938Z,1011.78
2017-04-07T06:21:37.286Z,1011.78
2017-04-07T06:22:46.248Z,1011.72
2017-04-07T06:23:55.207Z,1011.84
2017-04-07T06:25:04.258Z,1011.79
2017-04-07T06:26:13.215Z,1011.82
2017-04-07T06:27:22.472Z,1011.75
2017-04-07T06:28:31.426Z,1011.8
2017-04-07T06:29:40.515Z,1011.82
2017-04-07T06:30:49.467Z,1011.83
2017-04-07T06:31:58.420Z,1011.81
2017-04-07T06:33:07.654Z,1011.82
2017-04-07T06:34:16.610Z,1011.92
2017-04-07T06:35:25.566Z,1011.93
2017-04-07T06:36:34.518Z,1011.95
2017-04-07T06:37:43.493Z,1011.9
2017-04-07T06:38:52.698Z,1011.89
2017-04-07T06:40:01.828Z,1011.87
2017-04-07T06:41:10.782Z,1011.85
2017-04-07T06:42:19.734Z,1011.85
2017-04-07T06:43:28.686Z,1011.8
2017-04-07T06:44:38.010Z,1011.87
2017-04-07T06:45:46.963Z,1011.94
2017-04-07T06:46:55.928Z,1011.9
2017-04-07T06:48:04.876Z,1011.91
2017-04-07T06:49:13.826Z,1011.92
2017-04-07T06:50:23.037Z,1011.89
2017-04-07T06:51:31.989Z,1011.93
2017-04-07T06:52:40.982Z,1011.86
2017-04-07T06:53:49.940Z,1011.94
2017-04-07T06:54:59.218Z,1011.78
2017-04-07T06:56:08.424Z,1011.77
2017-04-07T06:57:17.376Z,1011.86
2017-04-07T06:58:26.331Z,1011.85
2017-04-07T06:59:35.368Z,1011.87
2017-04-07T07:00:44.321Z,1011.85
2017-04-07T07:01:53.531Z,1011.83
2017-04-07T07:03:02.481Z,1011.84
2017-04-07T07:04:11.518Z,1011.9
2017-04-07T07:05:20.558Z,1011.84
2017-04-07T07:06:29.513Z,1011.83
2017-04-07T07:07:38.766Z,1011.89
2017-04-07T07:08:47.717Z,1011.84
2017-04-07T07:09:56.669Z,1011.85
2017-04-07T07:11:05.955Z,1011.87
2017-04-07T07:12:14.995Z,1011.8
2017-04-07T07:13:24.199Z,1011.83
2017-04-07T07:14:33.148Z,1011.86
2017-04-07T07:15:42.182Z,1011.83
2017-04-07T07:16:51.134Z,1011.72
2017-04-07T07:18:00.085Z,1011.78
2017-04-07T07:19:09.293Z,1011.78
2017-04-07T07:20:18.243Z,1011.75
2017-04-07T07:21:27.292Z,1011.79
2017-04-07T07:22:36.333Z,1011.79
2017-04-07T07:23:45.491Z,1011.7
2017-04-07T07:24:54.743Z,1011.81
2017-04-07T07:26:03.697Z,1011.74
2017-04-07T07:27:12.739Z,1011.69
2017-04-07T07:28:21.689Z,1011.67
2017-04-07T07:29:30.640Z,1011.67
2017-04-07T07:30:39.849Z,1011.67
2017-04-07T07:31:48.808Z,1011.68
2017-04-07T07:32:57.765Z,1011.66
2017-04-07T07:34:06.719Z,1011.72
2017-04-07T07:35:15.762Z,1011.72
2017-04-07T07:36:24.959Z,1011.68
2017-04-07T07:37:34.018Z,1011.69
2017-04-07T07:38:43.284Z,1011.71
2017-04-07T07:39:52.327Z,1011.68
2017-04-07T07:41:01.283Z,1011.72
2017-04-07T07:42:10.485Z,1011.83
2017-04-07T07:43:19.527Z,1011.76
2017-04-07T07:44:28.657Z,1011.72
2017-04-07T07:45:37.700Z,1011.75
2017-04-07T07:46:46.738Z,1011.74
2017-04-07T07:47:55.940Z,1011.74
2017-04-07T07:49:04.897Z,1011.76
2017-04-07T07:50:13.847Z,1011.72
2017-04-07T07:51:22.891Z,1011.77
2017-04-07T07:52:31.841Z,1011.74
2017-04-07T07:53:41.043Z,1011.76
2017-04-07T07:54:49.997Z,1011.77
2017-04-07T07:55:58.948Z,1011.78
2017-04-07T07:57:07.904Z,1011.74
2017-04-07T07:58:16.854Z,1011.75
2017-04-07T07:59:26.053Z,1011.75
2017-04-07T08:00:35.007Z,1011.72
2017-04-07T08:01:43.960Z,1011.72
2017-04-07T08:02:52.912Z,1011.68
2017-04-07T08:04:01.863Z,1011.7
2017-04-07T08:05:11.064Z,1011.77
2017-04-07T08:06:20.108Z,1011.73
2017-04-07T08:07:29.058Z,1011.79
2017-04-07T08:08:38.011Z,1011.86
2017-04-07T08:09:47.052Z,1011.81
2017-04-07T08:10:56.345Z,1011.83
2017-04-07T08:12:05.385Z,1011.88
2017-04-07T08:13:14.339Z,1011.77
2017-04-07T08:14:23.631Z,1011.85
2017-04-07T08:15:32.580Z,1011.96
2017-04-07T08:16:41.832Z,1011.93
2017-04-07T08:17:50.787Z,1011.95
2017-04-07T08:18:59.830Z,1011.95
2017-04-07T08:20:08.784Z,1011.9
2017-04-07T08:21:17.746Z,1011.94
2017-04-07T08:22:26.999Z,1011.89
2017-04-07T08:23:35.954Z,1011.96
2017-04-07T08:24:44.908Z,1011.95
2017-04-07T08:25:53.942Z,1011.98
2017-04-07T08:27:02.897Z,1011.99
2017-04-07T08:28:12.104Z,1012
2017-04-07T08:29:21.388Z,1012
2017-04-07T08:30:30.343Z,1012.05
2017-04-07T08:31:39.379Z,1012.06
2017-04-07T08:32:48.330Z,1012.09
2017-04-07T08:33:57.535Z,1012.16
2017-04-07T08:35:06.484Z,1012.1
2017-04-07T08:36:15.438Z,1012.17
2017-04-07T08:37:24.393Z,1012.22
2017-04-07T08:38:33.345Z,1012.14
2017-04-07T08:39:42.557Z,1012.16
2017-04-07T08:40:51.508Z,1012.17
2017-04-07T08:42:00.552Z,1012.12
2017-04-07T08:43:09.594Z,1012.2
2017-04-07T08:44:18.630Z,1012.2
2017-04-07T08:45:27.914Z,1012.1
2017-04-07T08:46:36.869Z,1012.06
2017-04-07T08:47:45.823Z,1012.07
2017-04-07T08:48:54.767Z,1012.02
2017-04-07T08:50:03.723Z,1012.03
2017-04-07T08:51:13.010Z,1012.01
2017-04-07T08:52:21.965Z,1012.04
2017-04-07T08:53:30.915Z,1012.14
2017-04-07T08:54:39.868Z,1012.09
2017-04-07T08:55:48.823Z,1012.09
2017-04-07T08:56:58.028Z,1012.04
2017-04-07T08:58:06.981Z,1012.11
2017-04-07T08:59:15.931Z,1012.1
2017-04-07T09:00:24.890Z,1012.16
2017-04-07T09:01:33.842Z,1012.12
2017-04-07T09:02:43.094Z,1012.15
2017-04-07T09:03:52.047Z,1012.08
2017-04-07T09:05:00.998Z,1012.09
2017-04-07T09:06:09.954Z,1012.15
2017-04-07T09:07:18.999Z,1012.1
2017-04-07T09:08:28.208Z,1012.17
2017-04-07T09:09:37.167Z,1012.18
2017-04-07T09:10:46.120Z,1012.18
2017-04-07T09:11:55.484Z,1012.17
2017-04-07T09:13:04.440Z,1012.14
2017-04-07T09:14:13.971Z,1012.19
2017-04-07T09:15:22.919Z,1012.22
2017-04-07T09:16:31.872Z,1012.18
2017-04-07T09:17:40.823Z,1012.18
2017-04-07T09:18:49.861Z,1012.2
2017-04-07T09:19:59.122Z,1012.18
2017-04-07T09:21:08.077Z,1012.23
2017-04-07T09:22:17.030Z,1012.19
2017-04-07T09:23:25.983Z,1012.16
2017-04-07T09:24:34.938Z,1012.19
2017-04-07T09:25:44.147Z,1012.13
2017-04-07T09:26:53.101Z,1012.13
2017-04-07T09:28:02.055Z,1012.15
2017-04-07T09:29:11.010Z,1012.16
2017-04-07T09:30:19.964Z,1012.19
2017-04-07T09:31:29.221Z,1012.15
2017-04-07T09:32:38.178Z,1012.13
2017-04-07T09:33:47.125Z,1012.17
2017-04-07T09:34:56.164Z,1012.1
2017-04-07T09:36:05.114Z,1012.11
2017-04-07T09:37:14.411Z,1012.15
2017-04-07T09:38:23.367Z,1012.17
2017-04-07T09:39:32.315Z,1012.14
2017-04-07T09:40:41.272Z,1012.12
2017-04-07T09:41:50.222Z,1012.18
2017-04-07T09:42:59.517Z,1012.18
2017-04-07T09:44:08.466Z,1012.13
2017-04-07T09:45:17.422Z,1012.16
2017-04-07T09:46:26.378Z,1012.15
2017-04-07T09:47:35.328Z,1012.2
2017-04-07T09:48:44.625Z,1012.14
2017-04-07T09:49:53.575Z,1012.18
2017-04-07T09:51:02.614Z,1012.17
2017-04-07T09:52:11.565Z,1012.13
2017-04-07T09:53:20.518Z,1012.17
2017-04-07T09:54:29.853Z,1012.14
2017-04-07T09:55:38.803Z,1012.09
2017-04-07T09:56:47.755Z,1012.14
2017-04-07T09:57:56.712Z,1012.19
2017-04-07T09:59:05.669Z,1012.12
2017-04-07T10:00:14.870Z,1012.13
2017-04-07T10:01:23.841Z,1012.1
2017-04-07T10:02:32.914Z,1012.12
2017-04-07T10:03:41.869Z,1012.16
2017-04-07T10:04:50.851Z,1012.16
2017-04-07T10:06:00.066Z,1012.1
2017-04-07T10:07:09.025Z,1012.09
2017-04-07T10:08:17.980Z,1012.14
2017-04-07T10:09:26.930Z,1012.16
2017-04-07T10:10:35.878Z,1012.23
2017-04-07T10:11:45.192Z,1012.14
2017-04-07T10:12:54.141Z,1012.14
2017-04-07T10:14:03.097Z,1012.13
2017-04-07T10:15:12.053Z,1012.13
2017-04-07T10:16:21.001Z,1012.12
2017-04-07T10:17:30.258Z,1012.1
2017-04-07T10:18:39.297Z,1012.09
2017-04-07T10:19:48.253Z,1012.13
2017-04-07T10:20:57.205Z,1012.12
2017-04-07T10:22:06.155Z,1012.09
2017-04-07T10:23:15.364Z,1012.09
2017-04-07T10:24:24.319Z,1012.14
2017-04-07T10:25:33.276Z,1012.12
2017-04-07T10:26:42.224Z,1012.11
2017-04-07T10:27:51.174Z,1012.01
2017-04-07T10:29:00.374Z,1012.03
2017-04-07T10:30:09.413Z,1012.05
2017-04-07T10:31:18.869Z,1012.06
2017-04-07T10:32:27.823Z,1011.99
2017-04-07T10:33:36.780Z,1012.07
2017-04-07T10:34:46.034Z,1012.06
2017-04-07T10:35:54.987Z,1012.09
2017-04-07T10:37:03.943Z,1012.05
2017-04-07T10:38:12.896Z,1012.05
2017-04-07T10:39:21.852Z,1012.09
2017-04-07T10:40:31.106Z,1012.06
2017-04-07T10:41:40.063Z,1012.05
2017-04-07T10:42:49.100Z,1012.1
2017-04-07T10:43:58.138Z,1012.04
2017-04-07T10:45:07.092Z,1012.1
2017-04-07T10:46:16.385Z,1012.12
2017-04-07T10:47:25.339Z,1012.09
2017-04-07T10:48:34.305Z,1012.04
2017-04-07T10:49:43.257Z,1011.99
2017-04-07T10:50:52.219Z,1012.01
2017-04-07T10:52:01.477Z,1012.02
2017-04-07T10:53:10.429Z,1012.01
2017-04-07T10:54:19.382Z,1011.97
2017-04-07T10:55:28.338Z,1012.02
2017-04-07T10:56:37.291Z,1012.02
2017-04-07T10:57:46.545Z,1011.98
2017-04-07T10:58:55.499Z,1012.03
2017-04-07T11:00:04.459Z,1012.13
2017-04-07T11:01:13.417Z,1012.1
2017-04-07T11:02:22.376Z,1012.04
2017-04-07T11:03:31.575Z,1012.08
2017-04-07T11:04:40.530Z,1012.05
2017-04-07T11:05:49.490Z,1012.1
2017-04-07T11:06:58.451Z,1011.99
2017-04-07T11:08:07.405Z,1012.1
2017-04-07T11:09:16.605Z,1011.98
2017-04-07T11:10:25.646Z,1012.05
2017-04-07T11:11:34.605Z,1012.05
2017-04-07T11:12:43.555Z,1012.05
2017-04-07T11:13:52.505Z,1012.03
2017-04-07T11:15:01.707Z,1012.04
2017-04-07T11:16:10.669Z,1012.01
2017-04-07T11:17:19.707Z,1012.04
2017-04-07T11:18:28.661Z,1012.02
2017-04-07T11:19:37.618Z,1012.02
2017-04-07T11:20:46.820Z,1011.99
2017-04-07T11:21:55.772Z,1012.01
2017-04-07T11:23:04.729Z,1012
2017-04-07T11:24:13.689Z,1012.09
2017-04-07T11:25:22.639Z,1011.99
2017-04-07T11:26:31.874Z,1011.98
2017-04-07T11:27:41.162Z,1012.05
2017-04-07T11:28:50.114Z,1011.98
2017-04-07T11:29:59.107Z,1012.07
2017-04-07T11:31:08.064Z,1012.12
2017-04-07T11:32:17.350Z,1012.05
2017-04-07T11:33:26.305Z,1012.06
2017-04-07T11:34:35.342Z,1012.03
2017-04-07T11:35:44.298Z,1012.1
2017-04-07T11:36:53.258Z,1012.13
2017-04-07T11:38:02.471Z,1012.09
2017-04-07T11:39:11.434Z,1012.15
2017-04-07T11:40:20.388Z,1012.04
2017-04-07T11:41:29.343Z,1012.04
2017-04-07T11:42:38.304Z,1012.08
2017-04-07T11:43:47.596Z,1012.08
2017-04-07T11:44:56.554Z,1012.04
2017-04-07T11:46:05.848Z,1012.1
2017-04-07T11:47:14.797Z,1012.15
2017-04-07T11:48:23.751Z,1012.08
2017-04-07T11:49:32.962Z,1012.12
2017-04-07T11:50:41.914Z,1012.03
2017-04-07T11:51:50.873Z,1012.02
2017-04-07T11:52:59.830Z,1011.93
2017-04-07T11:54:08.788Z,1011.96
2017-04-07T11:55:18.003Z,1012.09
2017-04-07T11:56:26.966Z,1012.05
2017-04-07T11:57:36.099Z,1012.11
2017-04-07T11:58:45.063Z,1012.1
2017-04-07T11:59:54.024Z,1012.15
2017-04-07T12:01:03.236Z,1012.11
2017-04-07T12:02:12.279Z,1012.07
2017-04-07T12:03:21.244Z,1012.06
2017-04-07T12:04:30.202Z,1012.02
2017-04-07T12:05:39.160Z,1012.06
2017-04-07T12:06:48.378Z,1012.06
2017-04-07T12:07:57.332Z,1012.07
2017-04-07T12:09:06.288Z,1012
2017-04-07T12:10:15.245Z,1011.97
2017-04-07T12:11:24.197Z,1011.96
2017-04-07T12:12:33.456Z,1012
2017-04-07T12:13:42.412Z,1012.02
2017-04-07T12:14:51.362Z,1012.01
2017-04-07T12:16:00.321Z,1012.02
2017-04-07T12:17:09.367Z,1012.04
2017-04-07T12:18:18.625Z,1012.12
2017-04-07T12:19:27.582Z,1012.04
2017-04-07T12:20:36.543Z,1011.98
2017-04-07T12:21:45.512Z,1011.96
2017-04-07T12:22:54.473Z,1012
2017-04-07T12:24:03.679Z,1012.03
2017-04-07T12:25:12.637Z,1012.01
2017-04-07T12:26:21.681Z,1011.97
2017-04-07T12:27:30.639Z,1012.03
2017-04-07T12:28:39.597Z,1012.03
2017-04-07T12:29:48.861Z,1011.97
2017-04-07T12:30:57.904Z,1011.98
2017-04-07T12:32:06.860Z,1011.99
2017-04-07T12:33:15.818Z,1011.93
2017-04-07T12:34:24.780Z,1011.92
2017-04-07T12:35:33.983Z,1011.91
2017-04-07T12:36:42.940Z,1011.94
2017-04-07T12:37:51.895Z,1011.9
2017-04-07T12:39:00.872Z,1011.91
2017-04-07T12:40:10.167Z,1011.92
2017-04-07T12:41:19.372Z,1011.87
2017-04-07T12:42:28.415Z,1011.9
2017-04-07T12:43:37.382Z,1011.93
2017-04-07T12:44:46.349Z,1011.87
2017-04-07T12:45:55.304Z,1011.85
2017-04-07T12:47:04.558Z,1011.89
2017-04-07T12:48:13.606Z,1011.86
2017-04-07T12:49:22.746Z,1011.81
2017-04-07T12:50:31.701Z,1011.84
2017-04-07T12:51:40.667Z,1011.86
2017-04-07T12:52:49.878Z,1011.9
2017-04-07T12:53:58.832Z,1011.92
2017-04-07T12:55:08.129Z,1011.92
2017-04-07T12:56:17.081Z,1011.92
2017-04-07T12:57:26.119Z,1011.92
2017-04-07T12:58:35.381Z,1011.9
2017-04-07T12:59:44.335Z,1011.96
2017-04-07T13:00:53.292Z,1011.92
2017-04-07T13:02:02.251Z,1011.92
2017-04-07T13:03:11.206Z,1011.93
2017-04-07T13:04:20.417Z,1011.92
2017-04-07T13:05:29.459Z,1011.91
2017-04-07T13:06:38.415Z,1011.9
2017-04-07T13:07:47.373Z,1011.94
2017-04-07T13:08:56.332Z,1011.94
2017-04-07T13:10:05.589Z,1011.92
2017-04-07T13:11:14.551Z,1011.95
2017-04-07T13:12:23.593Z,1011.92
2017-04-07T13:13:32.549Z,1011.95
2017-04-07T13:14:41.506Z,1011.91
2017-04-07T13:15:50.707Z,1011.9
2017-04-07T13:17:00.422Z,1011.85
2017-04-07T13:18:09.464Z,1011.82
2017-04-07T13:19:18.418Z,1011.86
2017-04-07T13:20:27.381Z,1011.88
2017-04-07T13:21:36.646Z,1011.87
2017-04-07T13:22:45.601Z,1011.82
2017-04-07T13:23:54.556Z,1011.87
2017-04-07T13:25:03.534Z,1011.89
2017-04-07T13:26:12.493Z,1011.87
2017-04-07T13:27:21.698Z,1011.89
2017-04-07T13:28:30.660Z,1011.88
2017-04-07T13:29:39.616Z,1011.88
2017-04-07T13:30:48.661Z,1011.8
2017-04-07T13:31:57.621Z,1011.78
2017-04-07T13:33:06.861Z,1011.76
2017-04-07T13:34:15.915Z,1011.75
2017-04-07T13:35:24.878Z,1011.76
2017-04-07T13:36:33.833Z,1011.73
2017-04-07T13:37:42.878Z,1011.8
2017-04-07T13:38:52.317Z,1011.78
2017-04-07T13:40:01.366Z,1011.76
2017-04-07T13:41:10.323Z,1011.72
2017-04-07T13:42:19.282Z,1011.64
2017-04-07T13:43:28.242Z,1011.74
2017-04-07T13:44:37.771Z,1011.67
2017-04-07T13:45:46.733Z,1011.71
2017-04-07T13:46:55.695Z,1011.7
2017-04-07T13:48:04.655Z,1011.7
2017-04-07T13:49:13.615Z,1011.65
2017-04-07T13:50:22.831Z,1011.67
2017-04-07T13:51:31.793Z,1011.66
2017-04-07T13:52:40.745Z,1011.64
2017-04-07T13:53:50.024Z,1011.64
2017-04-07T13:54:58.984Z,1011.68
2017-04-07T13:56:08.195Z,1011.57
2017-04-07T13:57:17.148Z,1011.59
2017-04-07T13:58:26.105Z,1011.56